createdAt,value
2023-05-09T00:01:34.896Z,13.57
2023-05-09T00:04:05.945Z,12.50
2023-05-09T00:06:36.596Z,10.80
2023-05-09T00:09:07.631Z,10.02
2023-05-09T00:11:38.384Z,10.50
2023-05-09T00:14:12.705Z,9.52
2023-05-09T00:16:43.472Z,8.98
2023-05-09T00:19:14.510Z,9.20
2023-05-09T00:21:45.203Z,8.25
2023-05-09T00:24:16.189Z,8.30
2023-05-09T00:26:46.946Z,7.45
2023-05-09T00:29:20.306Z,8.00
2023-05-09T00:31:51.061Z,7.60
2023-05-09T00:34:22.778Z,7.80
2023-05-09T00:36:53.534Z,7.53
2023-05-09T00:39:24.697Z,7.55
2023-05-09T00:41:56.024Z,7.53
2023-05-09T00:44:29.832Z,7.35
2023-05-09T00:47:00.513Z,7.53
2023-05-09T00:49:31.517Z,7.35
2023-05-09T00:52:02.503Z,7.63
2023-05-09T00:54:33.535Z,7.85
2023-05-09T00:57:04.426Z,7.60
2023-05-09T00:59:38.024Z,7.68
2023-05-09T01:02:08.789Z,7.53
2023-05-09T01:04:39.932Z,8.50
2023-05-09T01:07:17.267Z,8.52
2023-05-09T01:09:54.068Z,8.60
2023-05-09T01:12:31.278Z,8.27
2023-05-09T01:15:12.221Z,8.82
2023-05-09T01:17:53.088Z,8.55
2023-05-09T01:20:34.129Z,8.85
2023-05-09T01:23:23.617Z,7.95
2023-05-09T01:26:04.096Z,7.60
2023-05-09T01:29:06.611Z,7.68
2023-05-09T01:31:44.141Z,7.00
2023-05-09T01:34:17.501Z,7.00
2023-05-09T01:36:52.698Z,7.35
2023-05-09T01:39:25.061Z,7.03
2023-05-09T01:41:58.584Z,6.95
2023-05-09T01:44:32.818Z,6.78
2023-05-09T01:47:08.161Z,7.30
2023-05-09T01:49:40.987Z,6.80
2023-05-09T01:52:14.628Z,7.00
2023-05-09T01:54:46.287Z,7.50
2023-05-09T01:57:18.541Z,7.25
2023-05-09T01:59:51.321Z,7.00
2023-05-09T02:02:25.430Z,7.30
2023-05-09T02:04:59.140Z,7.65
2023-05-09T02:07:32.554Z,7.45
2023-05-09T02:10:05.474Z,7.57
2023-05-09T02:12:38.486Z,7.95
2023-05-09T02:15:11.078Z,7.53
2023-05-09T02:17:48.008Z,7.93
2023-05-09T02:20:19.311Z,7.30
2023-05-09T02:22:51.008Z,6.82
2023-05-09T02:25:21.781Z,6.88
2023-05-09T02:27:53.291Z,7.07
2023-05-09T02:30:27.427Z,7.22
2023-05-09T02:33:06.710Z,6.97
2023-05-09T02:35:38.512Z,6.93
2023-05-09T02:38:10.495Z,7.43
2023-05-09T02:40:42.317Z,7.60
2023-05-09T02:43:13.388Z,6.82
2023-05-09T02:45:44.237Z,7.03
2023-05-09T02:48:17.747Z,7.07
2023-05-09T02:50:48.669Z,6.50
2023-05-09T02:53:19.585Z,6.13
2023-05-09T02:55:50.797Z,6.20
2023-05-09T02:58:21.684Z,6.07
2023-05-09T03:00:52.390Z,6.07
2023-05-09T03:03:26.271Z,5.78
2023-05-09T03:05:57.172Z,5.47
2023-05-09T03:08:28.049Z,4.80
2023-05-09T03:10:59.058Z,5.22
2023-05-09T03:13:29.937Z,5.10
2023-05-09T03:16:02.344Z,4.28
2023-05-09T03:18:35.847Z,4.28
2023-05-09T03:21:06.699Z,4.68
2023-05-09T03:23:40.014Z,4.00
2023-05-09T03:26:10.671Z,3.42
2023-05-09T03:28:41.634Z,3.40
2023-05-09T03:31:12.810Z,3.70
2023-05-09T03:33:46.345Z,4.10
2023-05-09T03:36:18.765Z,3.60
2023-05-09T03:38:49.569Z,4.13
2023-05-09T03:41:24.468Z,3.63
2023-05-09T03:43:55.259Z,3.75
2023-05-09T03:46:26.099Z,4.13
2023-05-09T03:48:59.520Z,4.38
2023-05-09T03:51:30.359Z,5.30
2023-05-09T03:54:01.441Z,4.75
2023-05-09T03:56:33.201Z,5.10
2023-05-09T03:59:04.032Z,5.80
2023-05-09T04:01:38.258Z,5.47
2023-05-09T04:04:13.769Z,6.60
2023-05-09T04:06:44.696Z,6.85
2023-05-09T04:09:16.085Z,6.18
2023-05-09T04:11:46.978Z,5.90
2023-05-09T04:14:19.344Z,5.68
2023-05-09T04:16:50.212Z,5.93
2023-05-09T04:19:23.671Z,6.45
2023-05-09T04:21:54.421Z,6.18
2023-05-09T04:24:25.398Z,7.22
2023-05-09T04:26:56.196Z,5.68
2023-05-09T04:29:29.844Z,6.30
2023-05-09T04:32:01.947Z,5.25
2023-05-09T04:34:36.031Z,5.20
2023-05-09T04:37:13.648Z,4.95
2023-05-09T04:39:45.501Z,4.90
2023-05-09T04:42:23.241Z,4.45
2023-05-09T04:44:54.030Z,4.43
2023-05-09T04:47:26.279Z,4.60
2023-05-09T04:49:59.857Z,5.25
2023-05-09T04:52:30.783Z,4.53
2023-05-09T04:55:01.818Z,4.18
2023-05-09T04:57:37.410Z,3.20
2023-05-09T05:00:14.253Z,2.80
2023-05-09T05:02:45.330Z,3.15
2023-05-09T05:05:25.094Z,2.53
2023-05-09T05:07:57.506Z,2.60
2023-05-09T05:10:33.797Z,4.20
2023-05-09T05:13:09.960Z,2.35
2023-05-09T05:15:45.630Z,2.63
2023-05-09T05:18:17.603Z,6.47
2023-05-09T05:20:50.949Z,3.42
2023-05-09T05:23:22.081Z,3.50
2023-05-09T05:25:56.662Z,4.03
2023-05-09T05:28:27.530Z,3.83
2023-05-09T05:30:58.580Z,4.50
2023-05-09T05:33:29.319Z,4.22
2023-05-09T05:36:03.409Z,4.10
2023-05-09T05:38:34.229Z,4.10
2023-05-09T05:41:05.158Z,3.45
2023-05-09T05:43:37.045Z,3.60
2023-05-09T05:46:08.511Z,3.90
2023-05-09T05:48:39.414Z,3.50
2023-05-09T05:51:13.007Z,3.38
2023-05-09T05:56:16.150Z,2.38
2023-05-09T05:58:47.405Z,2.15
2023-05-09T06:01:18.478Z,2.75
2023-05-09T06:03:54.939Z,2.72
2023-05-09T06:06:31.490Z,2.08
2023-05-09T06:09:02.219Z,2.10
2023-05-09T06:11:33.049Z,2.35
2023-05-09T06:14:03.957Z,2.38
2023-05-09T06:16:34.940Z,2.08
2023-05-09T06:19:05.697Z,2.05
2023-05-09T06:21:39.281Z,3.17
2023-05-09T06:24:19.849Z,2.40
2023-05-09T06:26:54.757Z,3.25
2023-05-09T06:29:25.470Z,2.70
2023-05-09T06:31:56.231Z,2.40
2023-05-09T06:34:27.213Z,1.88
2023-05-09T06:37:00.646Z,2.50
2023-05-09T06:39:31.323Z,2.15
2023-05-09T06:42:02.129Z,2.60
2023-05-09T06:44:41.525Z,3.00
2023-05-09T06:47:12.317Z,3.60
2023-05-09T06:49:43.087Z,3.40
2023-05-09T06:52:16.769Z,2.80
2023-05-09T06:54:47.513Z,2.58
2023-05-09T06:57:18.518Z,2.10
2023-05-09T06:59:49.248Z,2.30
2023-05-09T07:02:19.988Z,2.55
2023-05-09T07:04:50.889Z,2.50
2023-05-09T07:07:24.558Z,2.83
2023-05-09T07:10:03.886Z,3.00
2023-05-09T07:12:41.019Z,3.00
2023-05-09T07:15:13.568Z,2.75
2023-05-09T07:17:45.436Z,3.05
2023-05-09T07:20:16.332Z,3.70
2023-05-09T07:22:52.364Z,3.60
2023-05-09T07:25:23.232Z,3.88
2023-05-09T07:27:54.021Z,4.05
2023-05-09T07:30:25.475Z,4.07
2023-05-09T07:32:56.495Z,4.00
2023-05-09T07:35:27.279Z,5.38
2023-05-09T07:38:00.621Z,4.32
2023-05-09T07:40:31.297Z,4.30
2023-05-09T07:43:02.169Z,5.72
2023-05-09T07:45:32.952Z,4.70
2023-05-09T07:48:03.990Z,4.70
2023-05-09T07:50:34.835Z,5.65
2023-05-09T07:53:08.298Z,5.45
2023-05-09T07:55:38.963Z,5.45
2023-05-09T07:58:09.695Z,6.22
2023-05-09T08:00:40.320Z,18.65
2023-05-09T08:03:11.382Z,7.03
2023-05-09T08:05:42.646Z,5.78
2023-05-09T08:08:16.116Z,5.45
2023-05-09T08:10:47.321Z,5.30
2023-05-09T08:13:19.335Z,5.22
2023-05-09T08:15:50.138Z,5.28
2023-05-09T08:18:21.317Z,5.40
2023-05-09T08:20:52.551Z,5.10
2023-05-09T08:23:26.126Z,5.20
2023-05-09T08:25:57.491Z,5.72
2023-05-09T08:28:28.925Z,6.35
2023-05-09T08:30:59.881Z,4.38
2023-05-09T08:33:30.893Z,5.25
2023-05-09T08:36:02.047Z,4.75
2023-05-09T08:38:36.712Z,4.53
2023-05-09T08:41:07.555Z,4.53
2023-05-09T08:43:38.687Z,4.50
2023-05-09T08:46:11.445Z,5.18
2023-05-09T08:48:43.044Z,5.60
2023-05-09T08:51:14.401Z,5.38
2023-05-09T08:53:48.055Z,6.15
2023-05-09T08:56:18.938Z,5.90
2023-05-09T08:58:49.914Z,6.05
2023-05-09T09:01:22.462Z,6.35
2023-05-09T09:03:54.687Z,5.88
2023-05-09T09:06:26.573Z,5.43
2023-05-09T09:09:02.106Z,5.63
2023-05-09T09:11:33.974Z,5.70
2023-05-09T09:14:06.554Z,6.00
2023-05-09T09:16:39.941Z,6.03
2023-05-09T09:19:15.177Z,5.30
2023-05-09T09:21:48.132Z,9.00
2023-05-09T09:24:26.093Z,6.18
2023-05-09T09:26:56.899Z,5.80
2023-05-09T09:29:29.105Z,5.25
2023-05-09T09:31:59.859Z,6.10
2023-05-09T09:34:30.679Z,5.22
2023-05-09T09:37:01.871Z,5.20
2023-05-09T09:39:35.346Z,5.80
2023-05-09T09:42:15.875Z,4.95
2023-05-09T09:44:46.513Z,4.72
2023-05-09T09:47:17.282Z,4.80
2023-05-09T09:49:50.114Z,4.60
2023-05-09T09:52:27.361Z,4.00
2023-05-09T09:55:03.588Z,4.20
2023-05-09T09:57:40.198Z,4.40
2023-05-09T10:02:51.418Z,3.50
2023-05-09T10:05:23.807Z,2.83
2023-05-09T10:07:58.033Z,3.22
2023-05-09T10:10:35.786Z,2.40
2023-05-09T10:13:09.745Z,2.58
2023-05-09T10:15:52.129Z,2.83
2023-05-09T10:18:29.160Z,2.45
2023-05-09T10:23:38.261Z,2.75
2023-05-09T10:26:20.494Z,3.35
2023-05-09T10:28:52.952Z,3.85
2023-05-09T10:31:29.267Z,4.10
2023-05-09T10:34:04.957Z,9.45
2023-05-09T10:39:06.735Z,3.55
2023-05-09T10:41:42.047Z,3.10
2023-05-09T10:44:13.610Z,3.85
2023-05-09T10:46:45.014Z,5.13
2023-05-09T10:49:16.471Z,4.78
2023-05-09T10:51:47.308Z,4.38
2023-05-09T10:54:30.725Z,5.13
2023-05-09T10:57:05.957Z,5.00
2023-05-09T10:59:41.309Z,4.28
2023-05-09T11:04:48.069Z,4.13
2023-05-09T11:07:30.480Z,3.95
2023-05-09T11:10:11.849Z,4.20
2023-05-09T11:13:02.410Z,3.83
2023-05-09T11:15:33.543Z,4.95
2023-05-09T11:18:09.996Z,4.78
2023-05-09T11:20:47.166Z,4.50
2023-05-09T11:23:20.414Z,5.00
2023-05-09T11:25:52.320Z,4.53
2023-05-09T11:28:33.533Z,4.38
2023-05-09T11:31:14.689Z,4.78
2023-05-09T11:33:48.125Z,4.65
2023-05-09T11:36:20.770Z,4.75
2023-05-09T11:38:51.851Z,4.55
2023-05-09T11:41:26.006Z,4.82
2023-05-09T11:44:00.635Z,4.95
2023-05-09T11:46:31.654Z,4.43
2023-05-09T11:49:02.412Z,4.57
2023-05-09T11:51:33.244Z,4.53
2023-05-09T11:54:04.196Z,3.80
2023-05-09T11:56:35.467Z,4.63
2023-05-09T11:59:10.900Z,4.53
2023-05-09T12:01:44.187Z,4.90
2023-05-09T12:04:15.137Z,4.75
2023-05-09T12:06:50.720Z,5.03
2023-05-09T12:11:52.310Z,4.00
2023-05-09T12:14:37.908Z,4.80
2023-05-09T12:19:39.969Z,3.75
2023-05-09T12:22:10.781Z,3.97
2023-05-09T12:24:41.667Z,4.32
2023-05-09T12:27:12.627Z,5.18
2023-05-09T12:29:46.446Z,3.75
2023-05-09T12:32:18.683Z,4.07
2023-05-09T12:34:49.498Z,4.60
2023-05-09T12:37:21.855Z,5.10
2023-05-09T12:40:05.200Z,7.93
2023-05-09T12:42:38.520Z,8.75
2023-05-09T12:45:14.952Z,7.20
2023-05-09T12:47:46.229Z,5.97
2023-05-09T12:50:17.022Z,6.30
2023-05-09T12:53:02.527Z,6.15
2023-05-09T12:55:34.562Z,6.32
2023-05-09T12:58:06.410Z,6.35
2023-05-09T13:00:48.616Z,5.70
2023-05-09T13:03:26.969Z,6.63
2023-05-09T13:05:58.495Z,5.32
2023-05-09T13:08:30.008Z,5.97
2023-05-09T13:11:15.002Z,6.70
2023-05-09T13:13:47.293Z,6.32
2023-05-09T13:16:21.031Z,5.93
2023-05-09T13:18:52.030Z,6.22
2023-05-09T13:21:22.733Z,7.05
2023-05-09T13:23:53.617Z,6.57
2023-05-09T13:26:24.473Z,7.47
2023-05-09T13:28:55.252Z,6.78
2023-05-09T13:31:28.690Z,7.22
2023-05-09T13:33:59.509Z,8.10
2023-05-09T13:36:30.434Z,7.65
2023-05-09T13:39:01.181Z,8.57
2023-05-09T13:41:35.337Z,9.45
2023-05-09T13:44:08.160Z,10.55
2023-05-09T13:46:41.811Z,8.90
2023-05-09T13:49:12.737Z,9.60
2023-05-09T13:51:43.428Z,8.38
2023-05-09T13:54:17.699Z,9.52
2023-05-09T13:56:48.795Z,9.38
2023-05-09T13:59:19.639Z,9.88
2023-05-09T14:01:53.006Z,9.23
2023-05-09T14:04:23.872Z,9.70
2023-05-09T14:06:55.266Z,10.82
2023-05-09T14:09:29.437Z,11.52
2023-05-09T14:12:00.244Z,11.50
2023-05-09T14:14:31.057Z,10.38
2023-05-09T14:17:04.840Z,11.60
2023-05-09T14:19:35.804Z,12.27
2023-05-09T14:22:06.449Z,12.40
2023-05-09T14:24:37.316Z,13.13
2023-05-09T14:27:08.015Z,12.82
2023-05-09T14:29:41.427Z,13.05
2023-05-09T14:32:15.025Z,13.95
2023-05-09T14:34:46.029Z,12.55
2023-05-09T14:37:16.862Z,13.18
2023-05-09T14:39:49.750Z,11.98
2023-05-09T14:42:20.496Z,12.18
2023-05-09T14:44:51.379Z,13.35
2023-05-09T14:47:24.799Z,12.75
2023-05-09T14:49:56.360Z,13.52
2023-05-09T14:52:27.050Z,13.90
2023-05-09T14:55:00.083Z,14.13
2023-05-09T14:57:30.867Z,14.02
2023-05-09T15:00:12.508Z,13.02
2023-05-09T15:02:53.507Z,12.85
2023-05-09T15:05:24.512Z,13.20
2023-05-09T15:07:55.176Z,11.93
2023-05-09T15:10:27.921Z,12.55
2023-05-09T15:12:58.646Z,13.32
2023-05-09T15:15:29.407Z,13.55
2023-05-09T15:18:02.950Z,12.00
2023-05-09T15:20:33.796Z,13.95
2023-05-09T15:23:04.433Z,13.05
2023-05-09T15:25:35.337Z,12.48
2023-05-09T15:28:07.261Z,11.20
2023-05-09T15:30:41.353Z,13.23
2023-05-09T15:33:14.805Z,13.75
2023-05-09T15:35:45.934Z,14.13
2023-05-09T15:38:16.966Z,14.43
2023-05-09T15:40:48.176Z,13.52
2023-05-09T15:43:19.163Z,13.05
2023-05-09T15:45:51.618Z,28.00
2023-05-09T15:48:25.294Z,16.70
2023-05-09T15:50:56.405Z,15.13
2023-05-09T15:53:28.039Z,14.65
2023-05-09T15:55:59.057Z,14.27
2023-05-09T15:58:29.918Z,14.40
2023-05-09T16:01:00.734Z,14.20
2023-05-09T16:03:34.157Z,14.18
2023-05-09T16:06:05.502Z,13.20
2023-05-09T16:08:36.276Z,13.77
2023-05-09T16:11:07.672Z,14.68
2023-05-09T16:13:38.280Z,13.32
2023-05-09T16:16:09.577Z,13.40
2023-05-09T16:18:42.920Z,14.10
2023-05-09T16:21:13.920Z,12.18
2023-05-09T16:23:44.798Z,11.38
2023-05-09T16:26:15.778Z,11.93
2023-05-09T16:28:46.568Z,12.88
2023-05-09T16:31:17.464Z,14.48
2023-05-09T16:33:51.053Z,15.85
2023-05-09T16:36:22.366Z,16.45
2023-05-09T16:38:53.236Z,15.40
2023-05-09T16:41:24.008Z,17.45
2023-05-09T16:43:54.786Z,21.58
2023-05-09T16:46:25.634Z,21.02
2023-05-09T16:48:58.990Z,23.08
2023-05-09T16:51:29.753Z,20.67
2023-05-09T16:54:00.683Z,19.40
2023-05-09T16:56:31.519Z,18.73
2023-05-09T16:59:02.296Z,18.20
2023-05-09T17:01:33.632Z,17.33
2023-05-09T17:04:07.161Z,17.50
2023-05-09T17:06:38.165Z,16.75
2023-05-09T17:09:09.210Z,17.52
2023-05-09T17:11:40.179Z,17.00
2023-05-09T17:14:11.077Z,17.23
2023-05-09T17:16:43.211Z,16.67
2023-05-09T17:19:16.967Z,15.32
2023-05-09T17:21:47.599Z,15.57
2023-05-09T17:24:18.385Z,16.38
2023-05-09T17:26:50.512Z,15.98
2023-05-09T17:29:21.345Z,14.65
2023-05-09T17:31:52.403Z,17.00
2023-05-09T17:34:25.957Z,15.93
2023-05-09T17:36:56.798Z,17.00
2023-05-09T17:39:28.831Z,17.35
2023-05-09T17:41:59.649Z,18.52
2023-05-09T17:44:30.557Z,19.00
2023-05-09T17:47:01.507Z,19.05
2023-05-09T17:49:34.932Z,18.65
2023-05-09T17:52:05.735Z,18.50
2023-05-09T17:54:36.732Z,19.60
2023-05-09T17:57:07.788Z,18.50
2023-05-09T17:59:40.768Z,19.02
2023-05-09T18:02:11.598Z,19.20
2023-05-09T18:04:46.649Z,18.85
2023-05-09T18:07:17.391Z,19.73
2023-05-09T18:09:48.289Z,19.70
2023-05-09T18:12:19.164Z,20.25
2023-05-09T18:14:50.005Z,18.98
2023-05-09T18:17:20.854Z,18.70
2023-05-09T18:19:54.310Z,20.15
2023-05-09T18:22:25.602Z,16.38
2023-05-09T18:24:56.583Z,18.27
2023-05-09T18:27:27.875Z,20.27
2023-05-09T18:29:58.664Z,16.17
2023-05-09T18:32:30.258Z,15.93
2023-05-09T18:35:04.412Z,17.42
2023-05-09T18:37:35.976Z,16.73
2023-05-09T18:40:07.357Z,20.08
2023-05-09T18:42:38.027Z,18.67
2023-05-09T18:45:10.279Z,19.42
2023-05-09T18:47:41.491Z,19.98
2023-05-09T18:50:16.654Z,17.33
2023-05-09T18:52:47.557Z,15.73
2023-05-09T18:55:20.047Z,17.55
2023-05-09T18:57:51.001Z,17.92
2023-05-09T19:00:21.971Z,18.50
2023-05-09T19:02:52.936Z,23.42
2023-05-09T19:05:27.719Z,22.80
2023-05-09T19:07:58.579Z,22.52
2023-05-09T19:10:29.558Z,21.15
2023-05-09T19:13:00.369Z,17.20
2023-05-09T19:15:31.167Z,21.08
2023-05-09T19:18:02.038Z,20.00
2023-05-09T19:20:35.573Z,20.75
2023-05-09T19:23:06.236Z,19.08
2023-05-09T19:25:38.015Z,19.67
2023-05-09T19:28:08.909Z,15.80
2023-05-09T19:30:39.734Z,11.32
2023-05-09T19:33:10.527Z,13.02
2023-05-09T19:35:44.640Z,13.68
2023-05-09T19:38:15.379Z,20.17
2023-05-09T19:40:46.290Z,20.88
2023-05-09T19:43:17.028Z,20.00
2023-05-09T19:45:47.782Z,22.13
2023-05-09T19:48:18.535Z,14.95
2023-05-09T19:50:52.107Z,12.75
2023-05-09T19:53:22.888Z,18.90
2023-05-09T19:55:53.791Z,20.02
2023-05-09T19:58:24.586Z,21.08
2023-05-09T20:00:55.390Z,20.52
2023-05-09T20:03:26.325Z,19.17
2023-05-09T20:05:59.892Z,18.13
2023-05-09T20:08:31.460Z,17.98
2023-05-09T20:11:02.432Z,17.92
2023-05-09T20:13:33.210Z,18.10
2023-05-09T20:16:04.585Z,16.40
2023-05-09T20:18:35.892Z,15.88
2023-05-09T20:21:10.718Z,15.45
2023-05-09T20:23:41.450Z,15.17
2023-05-09T20:26:12.176Z,15.30
2023-05-09T20:28:42.838Z,14.43
2023-05-09T20:31:13.669Z,14.65
2023-05-09T20:33:44.403Z,13.80
2023-05-09T20:36:17.822Z,13.93
2023-05-09T20:38:48.454Z,13.20
2023-05-09T20:41:19.200Z,13.05
2023-05-09T20:43:49.884Z,13.63
2023-05-09T20:46:20.791Z,13.93
2023-05-09T20:48:51.650Z,15.30
2023-05-09T20:51:25.146Z,12.73
2023-05-09T20:53:56.005Z,14.55
2023-05-09T20:56:28.896Z,13.18
2023-05-09T20:59:01.217Z,15.57
2023-05-09T21:01:35.753Z,13.55
2023-05-09T21:04:08.591Z,15.15
2023-05-09T21:06:41.998Z,12.30
2023-05-09T21:09:12.949Z,10.38
2023-05-09T21:11:43.923Z,9.95
2023-05-09T21:14:14.966Z,11.93
2023-05-09T21:16:47.007Z,15.02
2023-05-09T21:19:17.759Z,15.15
2023-05-09T21:21:51.193Z,15.82
2023-05-09T21:24:21.920Z,15.77
2023-05-09T21:26:52.662Z,15.30
2023-05-09T21:29:23.673Z,14.77
2023-05-09T21:31:54.426Z,16.05
2023-05-09T21:34:25.151Z,20.08
2023-05-09T21:36:58.485Z,23.15
2023-05-09T21:39:29.180Z,22.30
2023-05-09T21:42:00.530Z,21.23
2023-05-09T21:44:31.259Z,20.88
2023-05-09T21:47:02.193Z,20.23
2023-05-09T21:49:32.948Z,18.63
2023-05-09T21:52:06.657Z,17.55
2023-05-09T21:54:37.407Z,16.48
2023-05-09T21:57:08.786Z,17.27
2023-05-09T21:59:40.099Z,16.42
2023-05-09T22:02:10.976Z,16.17
2023-05-09T22:04:42.099Z,15.07
2023-05-09T22:07:16.054Z,14.90
2023-05-09T22:09:46.851Z,14.55
2023-05-09T22:12:17.715Z,13.85
2023-05-09T22:14:55.677Z,13.63
2023-05-09T22:17:27.219Z,13.80
2023-05-09T22:19:57.916Z,13.57
2023-05-09T22:22:32.252Z,13.57
2023-05-09T22:25:03.185Z,13.75
2023-05-09T22:27:35.057Z,13.98
2023-05-09T22:30:05.951Z,12.32
2023-05-09T22:32:37.345Z,12.45
2023-05-09T22:35:09.072Z,12.32
2023-05-09T22:37:44.394Z,12.30
2023-05-09T22:40:16.807Z,12.65
2023-05-09T22:42:47.873Z,12.25
2023-05-09T22:45:18.700Z,12.85
2023-05-09T22:47:49.588Z,12.40
2023-05-09T22:50:20.686Z,11.95
2023-05-09T22:52:54.189Z,12.43
2023-05-09T22:55:25.106Z,11.65
2023-05-09T22:57:55.953Z,12.88
2023-05-09T23:00:26.668Z,12.90
2023-05-09T23:02:57.555Z,15.13
2023-05-09T23:05:28.458Z,13.55
2023-05-09T23:08:02.040Z,14.57
2023-05-09T23:10:32.989Z,14.10
2023-05-09T23:13:05.031Z,12.93
2023-05-09T23:15:36.264Z,11.82
2023-05-09T23:18:07.616Z,12.77
2023-05-09T23:20:39.306Z,11.10
2023-05-09T23:23:12.716Z,13.20
2023-05-09T23:25:44.693Z,12.77
2023-05-09T23:28:15.522Z,12.52
2023-05-09T23:30:46.256Z,12.38
2023-05-09T23:33:17.173Z,11.55
2023-05-09T23:35:48.010Z,11.52
2023-05-09T23:38:22.902Z,11.48
2023-05-09T23:40:53.713Z,10.25
2023-05-09T23:43:24.413Z,10.07
2023-05-09T23:45:56.237Z,8.98
2023-05-09T23:48:27.199Z,11.48
2023-05-09T23:50:57.900Z,10.13
2023-05-09T23:53:31.639Z,11.20
2023-05-09T23:56:02.626Z,10.60
2023-05-09T23:58:33.419Z,10.65
